Ravenna, Ohio
Current Conditions -  °F | °C
As of 9:00 PM on Tuesday 25 Nov 2014 (Local Time) from KPOV Reporting Station
Overcast Overcast  
Wind Chill: 26°   Ceiling: 1500
Heat Index: 32°   Visibility: 10mi
Dew Point: 26°   Wind: 7mph
Humidity: 79%   Direction: 300°WNW
Pressure: 30.18"   Gusts: NA
Location:  41.16°N, 81.24°W
Report Text: KPOV 260200Z AUTO 30006KT 10SM BKN015 OVC021 00/M03 A3018 RMK AO2 T00001033
Loading
Personal Weather Stations






























Interactive Weather Map New forecast layout! Learn more

10-Day Weather Forecast

Advertisements
Track Severe Weather on mobile